Time;durP1;ratioP1;P1;durP2;ratioP2;P2;SDS_P1;SDS_P2;PMS_P1;PMS_P2;Temp;Humidity;BMP_temperature;BMP_pressure;BME280_temperature;BME280_humidity;BME280_pressure;Samples;Min_cycle;Max_cycle;Signal;HPM_P1;HPM_P2
2021/04/12 00:02:32;;;;;;;6.97;2.07;;;;;;;2.55;80.92;101225.02;115830;1209;62332;-78
2021/04/12 00:05:26;;;;;;;4.63;1.70;;;;;;;2.53;80.60;101227.77;115812;1209;62397;-78
2021/04/12 00:08:15;;;;;;;8.23;3.93;;;;;;;2.52;80.42;101233.94;115852;1209;62422;-77
2021/04/12 00:10:57;;;;;;;4.63;1.80;;;;;;;2.51;80.19;101239.28;115827;1209;62713;-77
2021/04/12 00:13:23;;;;;;;7.85;1.80;;;;;;;2.49;80.31;101236.80;115769;1209;62658;-78
2021/04/12 00:16:03;;;;;;;8.80;2.83;;;;;;;2.47;80.42;101237.85;115811;1209;63719;-78
2021/04/12 00:18:37;;;;;;;15.25;3.45;;;;;;;2.45;80.21;101241.41;115760;1209;62429;-78
2021/04/12 00:21:16;;;;;;;15.30;4.25;;;;;;;2.44;80.69;101234.51;115825;1209;62590;-78
2021/04/12 00:23:47;;;;;;;13.07;4.30;;;;;;;2.42;80.54;101254.73;115772;1209;62821;-78
2021/04/12 00:26:25;;;;;;;6.03;2.47;;;;;;;2.41;80.49;101250.41;115777;1209;62498;-78
2021/04/12 00:29:04;;;;;;;15.53;4.90;;;;;;;2.41;81.00;101250.41;115777;1209;62212;-78
2021/04/12 00:31:56;;;;;;;9.23;3.60;;;;;;;2.38;81.49;101255.88;115797;1209;62689;-78
2021/04/12 00:35:00;;;;;;;13.33;4.63;;;;;;;2.38;81.69;101258.50;115782;1209;62695;-78
2021/04/12 00:37:54;;;;;;;4.80;2.30;;;;;;;2.36;81.48;101252.53;115811;1209;62821;-78
2021/04/12 00:40:45;;;;;;;15.53;4.50;;;;;;;2.35;81.54;101269.17;115741;1209;62651;-78
2021/04/12 00:43:31;;;;;;;8.50;2.70;;;;;;;2.36;81.35;101267.38;115821;1209;62377;-77
2021/04/12 00:46:11;;;;;;;15.23;4.07;;;;;;;2.34;81.71;101270.13;115840;1209;62216;-78
2021/04/12 00:48:57;;;;;;;9.93;3.77;;;;;;;2.32;81.62;101269.40;115816;1208;62413;-78
2021/04/12 00:51:50;;;;;;;11.55;3.15;;;;;;;2.31;81.47;101275.56;115828;1209;62302;-78
2021/04/12 00:54:37;;;;;;;6.30;2.83;;;;;;;2.31;81.61;101269.50;115696;1209;62304;-78
2021/04/12 00:57:34;;;;;;;8.40;3.13;;;;;;;2.30;81.43;101283.55;115804;1209;62319;-78
2021/04/12 01:00:27;;;;;;;11.75;4.35;;;;;;;2.28;81.39;101286.27;115783;1209;62833;-78
2021/04/12 01:03:11;;;;;;;10.85;4.40;;;;;;;2.23;81.42;101275.26;115800;1209;63247;-79
2021/04/12 01:05:52;;;;;;;6.63;2.20;;;;;;;2.21;81.50;101270.16;115804;1209;62971;-78
2021/04/12 01:08:43;;;;;;;11.67;3.63;;;;;;;2.19;81.33;101276.41;115804;1209;62200;-78
2021/04/12 01:11:44;;;;;;;5.90;1.80;;;;;;;2.16;81.52;101287.11;115853;1209;62452;-78
2021/04/12 01:14:29;;;;;;;9.73;2.90;;;;;;;2.09;81.52;101298.95;115832;1209;62341;-79
2021/04/12 01:17:01;;;;;;;8.10;3.40;;;;;;;2.07;81.82;101295.60;115786;1209;62258;-79
2021/04/12 01:19:59;;;;;;;5.87;2.33;;;;;;;2.03;82.18;101295.80;115830;1209;62189;-79
2021/04/12 01:23:18;;;;;;;12.83;2.87;;;;;;;1.98;81.96;101299.69;115808;1209;63002;-79
2021/04/12 01:26:15;;;;;;;10.07;3.87;;;;;;;1.92;82.13;101311.39;115850;1209;62280;-79
2021/04/12 01:29:06;;;;;;;10.50;2.70;;;;;;;1.91;81.87;101317.55;115825;1209;62277;-78
2021/04/12 01:31:56;;;;;;;19.60;3.17;;;;;;;1.91;82.35;101325.41;115836;1209;62502;-78
2021/04/12 01:35:12;;;;;;;7.50;1.77;;;;;;;1.89;81.86;101335.16;115793;1209;63513;-78
2021/04/12 01:37:53;;;;;;;7.10;2.33;;;;;;;1.88;81.77;101319.56;115822;1209;62917;-78
2021/04/12 01:40:39;;;;;;;12.20;3.33;;;;;;;1.86;81.77;101314.42;115774;1209;62194;-78
2021/04/12 01:43:10;;;;;;;11.67;3.13;;;;;;;1.84;82.06;101332.00;115793;1209;62266;-79
2021/04/12 01:45:47;;;;;;;13.50;3.57;;;;;;;1.84;82.60;101329.38;115845;1209;62193;-79
2021/04/12 01:48:49;;;;;;;11.43;2.27;;;;;;;1.82;82.40;101320.80;115780;1209;64350;-79
2021/04/12 01:51:21;;;;;;;10.15;3.40;;;;;;;1.80;82.30;101322.67;115787;1209;62580;-79
2021/04/12 01:54:07;;;;;;;12.00;4.00;;;;;;;1.80;82.24;101322.67;115837;1209;62787;-81
2021/04/12 01:57:01;;;;;;;16.95;5.80;;;;;;;1.79;82.67;101334.09;115838;1209;62605;-80
2021/04/12 01:59:28;;;;;;;18.05;5.00;;;;;;;1.80;82.82;101335.75;115816;1209;62190;-80
2021/04/12 02:02:21;;;;;;;17.77;4.90;;;;;;;1.78;82.93;101329.79;115893;1209;62340;-79
2021/04/12 02:05:03;;;;;;;20.63;5.47;;;;;;;1.78;83.50;101335.02;115911;1209;62530;-79
2021/04/12 02:08:01;;;;;;;16.20;5.20;;;;;;;1.78;83.64;101348.09;115955;1209;62601;-79
2021/04/12 02:10:46;;;;;;;17.45;6.60;;;;;;;1.78;83.98;101345.48;115945;1209;62247;-78
2021/04/12 02:13:26;;;;;;;20.95;7.05;;;;;;;1.77;84.27;101354.28;115909;1209;62729;-78
2021/04/12 02:16:17;;;;;;;16.47;4.63;;;;;;;1.76;84.14;101363.89;115820;1209;62243;-79
2021/04/12 02:19:22;;;;;;;27.50;9.17;;;;;;;1.75;84.87;101362.23;115791;1209;62877;-78
2021/04/12 02:22:17;;;;;;;20.33;6.93;;;;;;;1.73;84.95;101374.56;115661;1209;62370;-79
2021/04/12 02:25:03;;;;;;;11.87;4.40;;;;;;;1.71;85.00;101371.21;115801;1209;62390;-78
2021/04/12 02:27:36;;;;;;;;;;;;;;;1.69;84.94;101382.72;115838;1216;62504;-79
2021/04/12 02:30:20;;;;;;;19.13;6.43;;;;;;;1.68;85.26;101383.64;115765;1209;62289;-78
2021/04/12 02:33:00;;;;;;;16.87;6.57;;;;;;;1.66;85.40;101382.91;115781;1209;63159;-79
2021/04/12 02:35:43;;;;;;;16.57;6.17;;;;;;;1.62;85.44;101380.50;115790;1209;62715;-79
2021/04/12 02:38:20;;;;;;;10.50;3.33;;;;;;;1.57;85.39;101374.74;115774;1209;62207;-78
2021/04/12 02:41:08;;;;;;;5.53;2.53;;;;;;;1.55;85.78;101388.83;115829;1209;62427;-78
2021/04/12 02:43:57;;;;;;;16.97;6.43;;;;;;;1.52;85.63;101378.59;115780;1209;62996;-78
2021/04/12 02:47:01;;;;;;;16.50;7.25;;;;;;;1.50;85.56;101383.91;115787;1209;63203;-78
2021/04/12 02:49:52;;;;;;;23.60;9.50;;;;;;;1.49;85.72;101386.61;115843;1209;62688;-78
2021/04/12 02:52:38;;;;;;;17.93;7.07;;;;;;;1.46;85.97;101392.88;115797;1209;62586;-78
2021/04/12 02:55:13;;;;;;;;;;;;;;;1.44;86.13;101394.75;115817;1216;62310;-78
2021/04/12 02:58:17;;;;;;;18.33;6.33;;;;;;;1.41;86.33;101402.81;115792;1209;64584;-78
2021/04/12 03:00:52;;;;;;;22.33;7.90;;;;;;;1.39;86.14;101396.84;115783;1209;62331;-78
2021/04/12 03:03:57;;;;;;;16.20;7.60;;;;;;;1.36;86.40;101392.66;115785;1209;63108;-78
2021/04/12 03:06:54;;;;;;;13.17;4.43;;;;;;;1.32;86.38;101400.77;115767;1209;62610;-80
2021/04/12 03:09:43;;;;;;;17.53;4.53;;;;;;;1.30;86.48;101398.27;115841;1209;62472;-79
2021/04/12 03:12:45;;;;;;;12.17;4.23;;;;;;;1.28;87.23;101396.70;115834;1209;62922;-79
2021/04/12 03:15:43;;;;;;;14.40;5.77;;;;;;;1.26;86.24;101391.55;115564;1209;62514;-80
2021/04/12 03:19:08;;;;;;;24.75;8.15;;;;;;;1.21;86.75;101402.30;115812;1209;62408;-79
2021/04/12 03:22:19;;;;;;;19.63;6.80;;;;;;;1.19;86.97;101398.95;115631;1209;62693;-80
2021/04/12 03:25:27;;;;;;;18.20;5.77;;;;;;;1.17;86.74;101390.37;115754;1209;62351;-79
2021/04/12 03:28:18;;;;;;;18.73;7.23;;;;;;;1.15;87.09;101394.84;115555;1212;62149;-79
2021/04/12 03:31:02;;;;;;;14.93;3.93;;;;;;;1.12;86.73;101404.64;115561;1212;62583;-79
2021/04/12 03:33:56;;;;;;;12.40;3.70;;;;;;;1.11;87.30;101414.27;115837;1209;62186;-80
2021/04/12 03:36:31;;;;;;;11.53;6.73;;;;;;;1.09;87.45;101404.86;115819;1209;63246;-80
2021/04/12 03:39:10;;;;;;;18.05;7.55;;;;;;;1.08;87.59;101414.44;115841;1209;62237;-79
2021/04/12 03:42:08;;;;;;;22.17;9.67;;;;;;;1.08;86.87;101417.05;115843;1209;63557;-79
2021/04/12 03:45:00;;;;;;;31.10;6.43;;;;;;;1.04;87.46;101412.95;115839;1208;63186;-79
2021/04/12 03:47:41;;;;;;;27.83;12.17;;;;;;;1.01;87.09;101421.00;115881;1209;62317;-80
2021/04/12 03:50:51;;;;;;;23.20;8.73;;;;;;;0.99;86.67;101433.31;115921;1209;62382;-79
2021/04/12 03:53:51;;;;;;;27.90;9.73;;;;;;;0.98;87.36;101439.48;116125;1209;62419;-79
2021/04/12 03:56:29;;;;;;;36.25;10.90;;;;;;;0.97;87.38;101443.84;115831;1209;62206;-80
2021/04/12 03:59:08;;;;;;;26.43;9.40;;;;;;;0.93;87.37;101444.14;115840;1209;62869;-80
2021/04/12 04:02:00;;;;;;;27.25;11.30;;;;;;;0.93;87.68;101441.52;115877;1209;62409;-79
2021/04/12 04:04:42;;;;;;;42.45;13.75;;;;;;;0.92;87.57;101447.70;115869;1209;64038;-79
2021/04/12 04:07:39;;;;;;;12.27;5.87;;;;;;;0.90;87.68;101447.78;115864;1209;62454;-79
2021/04/12 04:10:31;;;;;;;28.87;9.70;;;;;;;0.91;87.49;101469.52;115771;1209;63058;-78
2021/04/12 04:13:03;;;;;;;19.95;8.35;;;;;;;0.89;87.69;101471.38;115643;1209;62490;-78
2021/04/12 04:15:53;;;;;;;31.30;10.87;;;;;;;0.90;87.62;101465.23;115737;1209;62278;-77
2021/04/12 04:18:43;;;;;;;20.23;7.43;;;;;;;0.88;87.55;101470.55;115808;1209;62191;-78
2021/04/12 04:21:19;;;;;;;30.60;10.13;;;;;;;0.89;87.25;101466.15;115831;1209;62344;-80
2021/04/12 04:24:10;;;;;;;25.85;10.00;;;;;;;0.89;87.33;101468.77;115807;1209;62964;-79
2021/04/12 04:26:42;;;;;;;17.00;6.17;;;;;;;0.85;87.44;101469.88;115862;1209;62451;-80
2021/04/12 04:29:37;;;;;;;21.30;8.93;;;;;;;0.84;87.21;101469.05;115851;1209;62285;-80
2021/04/12 04:32:25;;;;;;;24.58;9.53;;;;;;;0.83;87.63;101470.00;115892;1209;62295;-79
2021/04/12 04:35:16;;;;;;;25.97;10.60;;;;;;;0.83;87.56;101471.74;115875;1209;62563;-80
2021/04/12 04:38:02;;;;;;;31.90;11.67;;;;;;;0.81;87.29;101459.63;115859;1209;62994;-80
2021/04/12 04:40:48;;;;;;;28.37;10.67;;;;;;;0.83;87.15;101466.52;115851;1209;62290;-80
2021/04/12 04:43:40;;;;;;;31.50;11.00;;;;;;;0.83;87.68;101475.22;115857;1209;62288;-79
2021/04/12 04:46:41;;;;;;;29.40;8.30;;;;;;;0.84;87.58;101476.05;115713;1207;62223;-80
2021/04/12 04:49:46;;;;;;;25.43;9.77;;;;;;;0.84;87.62;101482.11;115863;1209;62346;-80
2021/04/12 04:52:37;;;;;;;30.85;12.75;;;;;;;0.87;87.29;101484.55;115823;1209;63391;-81
2021/04/12 04:55:25;;;;;;;37.67;14.30;;;;;;;0.89;87.34;101482.66;115846;1209;62223;-81
2021/04/12 04:58:00;;;;;;;35.75;11.70;;;;;;;0.90;86.80;101493.97;115831;1207;63185;-81
2021/04/12 05:00:47;;;;;;;26.13;12.50;;;;;;;0.92;87.11;101497.33;115837;1209;62296;-80
2021/04/12 05:03:26;;;;;;;31.20;7.83;;;;;;;0.94;86.80;101498.91;115844;1209;62305;-82
2021/04/12 05:06:01;;;;;;;40.57;11.27;;;;;;;0.97;87.05;101487.43;115856;1209;62784;-81
2021/04/12 05:08:46;;;;;;;28.35;9.50;;;;;;;1.00;86.93;101493.31;115837;1209;62912;-82
2021/04/12 05:11:29;;;;;;;28.73;12.77;;;;;;;1.04;86.69;101496.56;115833;1209;62966;-75
2021/04/12 05:14:05;;;;;;;23.10;8.40;;;;;;;1.10;86.69;101501.41;115823;1209;62576;-75
2021/04/12 05:16:59;;;;;;;35.30;12.95;;;;;;;1.15;86.51;101504.61;115831;1209;62435;-75
2021/04/12 05:19:58;;;;;;;29.90;11.45;;;;;;;1.22;86.30;101510.29;115851;1209;63472;-76
2021/04/12 05:23:00;;;;;;;30.55;9.15;;;;;;;1.28;86.32;101502.08;115784;1207;62342;-75
2021/04/12 05:25:57;;;;;;;26.93;10.00;;;;;;;1.31;85.95;101511.50;115834;1209;62264;-75
2021/04/12 05:28:52;;;;;;;31.70;11.33;;;;;;;1.33;85.53;101525.31;115855;1209;62941;-75
2021/04/12 05:31:25;;;;;;;18.65;5.60;;;;;;;1.32;85.61;101534.08;115884;1209;62213;-75
2021/04/12 05:34:30;;;;;;;16.90;5.50;;;;;;;1.36;85.40;101538.18;115831;1209;63382;-75
2021/04/12 05:37:42;;;;;;;22.63;8.53;;;;;;;1.39;84.96;101536.23;115803;1209;63036;-75
2021/04/12 05:40:38;;;;;;;25.05;8.95;;;;;;;1.41;85.09;101546.59;115802;1209;62471;-75
2021/04/12 05:43:46;;;;;;;22.70;9.00;;;;;;;1.45;85.27;101545.47;115851;1209;62190;-75
2021/04/12 05:46:38;;;;;;;21.70;5.85;;;;;;;1.50;84.84;101555.64;115831;1209;62699;-75
2021/04/12 05:49:12;;;;;;;16.85;5.90;;;;;;;1.53;84.48;101561.53;115792;1209;62194;-75
2021/04/12 05:52:16;;;;;;;17.27;6.07;;;;;;;1.59;84.33;101555.06;115831;1209;62361;-75
2021/04/12 05:54:56;;;;;;;19.73;7.30;;;;;;;1.66;84.24;101571.20;115842;1209;62251;-75
2021/04/12 05:57:54;;;;;;;12.30;5.10;;;;;;;1.70;83.89;101573.56;115847;1209;62240;-75
2021/04/12 06:00:23;;;;;;;27.25;11.60;;;;;;;1.79;84.00;101579.99;115836;1209;62521;-75
2021/04/12 06:02:59;;;;;;;24.87;10.43;;;;;;;1.84;83.77;101576.13;115823;1209;63439;-75
2021/04/12 06:05:38;;;;;;;24.80;9.83;;;;;;;1.90;82.94;101579.31;115785;1209;62352;-75
2021/04/12 06:08:46;;;;;;;26.90;10.73;;;;;;;1.99;83.30;101584.78;115860;1209;62166;-74
2021/04/12 06:11:40;;;;;;;26.73;9.13;;;;;;;2.04;82.63;101585.35;115799;1209;62107;-73
2021/04/12 06:14:46;;;;;;;28.17;9.90;;;;;;;2.13;82.20;101590.94;115864;1209;62180;-73
2021/04/12 06:17:42;;;;;;;23.05;7.65;;;;;;;2.18;81.54;101594.09;115844;1209;62981;-73
2021/04/12 06:20:17;;;;;;;26.97;10.00;;;;;;;2.22;81.85;101603.43;115837;1209;62331;-73
2021/04/12 06:23:09;;;;;;;21.47;9.60;;;;;;;2.31;82.08;101602.83;115848;1209;62231;-73
2021/04/12 06:26:14;;;;;;;27.40;11.50;;;;;;;2.40;81.41;101604.01;115850;1209;62300;-73
2021/04/12 06:29:23;;;;;;;24.00;10.90;;;;;;;2.45;80.86;101596.72;115698;1209;62309;-73
2021/04/12 06:32:14;;;;;;;19.75;8.15;;;;;;;2.42;80.59;101602.13;115803;1209;63108;-73
2021/04/12 06:35:13;;;;;;;19.27;7.50;;;;;;;2.39;80.53;101600.56;115824;1209;62259;-74
2021/04/12 06:37:51;;;;;;;12.10;5.30;;;;;;;2.38;80.41;101613.74;115904;1209;62184;-75
2021/04/12 06:40:24;;;;;;;22.77;7.50;;;;;;;2.33;80.49;101603.57;115834;1209;62196;-75
2021/04/12 06:43:12;;;;;;;18.33;5.93;;;;;;;2.26;79.97;101607.53;115866;1209;62212;-76
2021/04/12 06:45:58;;;;;;;9.40;3.27;;;;;;;2.17;79.99;101611.58;115816;1209;63122;-75
2021/04/12 06:49:03;;;;;;;23.55;7.40;;;;;;;2.19;80.92;101608.84;115842;1209;63281;-75
2021/04/12 06:52:02;;;;;;;15.30;6.30;;;;;;;2.19;80.38;101617.56;115878;1209;62737;-76
2021/04/12 06:55:03;;;;;;;9.30;2.70;;;;;;;2.29;80.63;101622.20;115846;1209;62201;-75
2021/04/12 06:57:51;;;;;;;6.30;1.95;;;;;;;2.38;80.36;101627.70;115875;1209;62471;-76
2021/04/12 07:00:55;;;;;;;10.63;4.27;;;;;;;2.46;80.27;101629.80;115843;1209;63291;-76
2021/04/12 07:03:59;;;;;;;22.37;7.47;;;;;;;2.55;80.02;101633.60;115854;1209;62722;-75
2021/04/12 07:06:44;;;;;;;6.27;3.17;;;;;;;2.62;79.48;101634.90;115889;1209;62122;-75
2021/04/12 07:09:41;;;;;;;16.30;5.97;;;;;;;2.66;79.83;101639.00;115870;1209;62853;-76
2021/04/12 07:12:46;;;;;;;14.03;5.93;;;;;;;2.71;79.67;101639.53;115875;1209;62222;-75
2021/04/12 07:15:48;;;;;;;15.47;5.80;;;;;;;2.76;78.04;101647.95;115878;1209;62513;-76
2021/04/12 07:18:51;;;;;;;15.75;4.60;;;;;;;2.91;78.79;101651.34;115827;1209;63066;-75
2021/04/12 07:21:40;;;;;;;13.70;5.33;;;;;;;3.07;77.83;101661.63;115882;1209;62198;-76
2021/04/12 07:24:35;;;;;;;26.37;10.23;;;;;;;3.26;78.39;101654.20;115863;1209;62139;-76
2021/04/12 07:27:39;;;;;;;18.60;8.33;;;;;;;3.46;77.23;101663.35;115875;1209;62212;-76
2021/04/12 07:30:51;;;;;;;14.97;7.13;;;;;;;3.71;75.86;101659.02;115862;1209;64109;-75
2021/04/12 07:33:49;;;;;;;11.33;3.20;;;;;;;3.94;74.21;101660.04;115855;1209;62321;-75
2021/04/12 07:36:53;;;;;;;21.40;5.60;;;;;;;4.09;74.14;101672.08;115907;1209;62381;-75
2021/04/12 07:39:57;;;;;;;11.17;4.40;;;;;;;4.15;73.25;101667.36;115860;1209;62178;-75
2021/04/12 07:43:09;;;;;;;11.97;4.53;;;;;;;4.23;72.66;101665.00;115839;1209;62175;-74
2021/04/12 07:46:24;;;;;;;7.05;3.80;;;;;;;4.28;72.14;101671.61;115787;1209;64767;-74
2021/04/12 07:49:28;;;;;;;7.25;2.25;;;;;;;4.33;71.21;101681.78;115871;1209;62217;-74
2021/04/12 07:52:46;;;;;;;7.03;3.07;;;;;;;4.26;69.92;101673.50;115881;1209;62154;-74
2021/04/12 07:55:24;;;;;;;16.10;5.63;;;;;;;4.21;70.45;101686.14;115740;1209;62397;-75
2021/04/12 07:58:11;;;;;;;13.37;3.73;;;;;;;4.17;70.25;101683.84;115882;1209;62372;-75
2021/04/12 08:00:56;;;;;;;7.77;3.00;;;;;;;4.09;70.31;101692.25;115820;1209;63332;-74
2021/04/12 08:03:46;;;;;;;9.83;3.37;;;;;;;4.08;70.12;101701.92;115935;1209;62225;-75
2021/04/12 08:06:32;;;;;;;16.47;4.17;;;;;;;4.17;70.43;101695.18;115841;1209;62659;-73
2021/04/12 08:09:04;;;;;;;7.47;2.57;;;;;;;4.21;69.12;101707.15;115894;1209;62534;-74
2021/04/12 08:12:08;;;;;;;8.23;3.67;;;;;;;4.35;69.72;101713.20;115842;1209;62768;-75
2021/04/12 08:15:31;;;;;;;7.07;2.73;;;;;;;4.54;69.94;101697.79;115869;1209;62819;-76
2021/04/12 08:18:16;;;;;;;9.90;2.80;;;;;;;4.73;68.42;101702.55;115807;1209;62364;-75
2021/04/12 08:21:25;;;;;;;8.30;3.73;;;;;;;4.85;67.99;101706.91;115873;1209;62477;-75
2021/04/12 08:24:32;;;;;;;11.50;4.80;;;;;;;5.00;66.75;101707.58;115851;1209;62363;-75
2021/04/12 08:27:25;;;;;;;13.27;4.13;;;;;;;5.15;66.76;101713.48;115822;1209;62381;-75
2021/04/12 08:30:28;;;;;;;7.37;1.87;;;;;;;5.32;66.75;101704.33;115858;1209;63369;-76
2021/04/12 08:33:07;;;;;;;8.27;3.87;;;;;;;5.49;63.76;101703.05;115909;1209;62377;-75
2021/04/12 08:36:11;;;;;;;17.60;6.43;;;;;;;5.68;65.58;101711.21;115879;1209;62196;-75
2021/04/12 08:39:07;;;;;;;9.67;2.20;;;;;;;5.84;63.47;101704.75;115875;1209;62199;-75
2021/04/12 08:41:50;;;;;;;6.50;2.85;;;;;;;5.97;64.28;101705.53;115847;1209;61969;-75
2021/04/12 08:44:54;;;;;;;9.15;3.00;;;;;;;5.97;61.69;101713.43;115385;1209;64317;-76
2021/04/12 08:48:18;;;;;;;7.93;3.87;;;;;;;5.90;60.42;101720.08;115808;1209;62782;-76
2021/04/12 08:51:03;;;;;;;5.20;2.40;;;;;;;5.75;59.71;101731.80;115561;1212;62310;-74
2021/04/12 08:54:00;;;;;;;2.80;1.60;;;;;;;5.83;60.36;101732.05;115591;1212;61866;-75
2021/04/12 08:56:49;;;;;;;7.50;2.45;;;;;;;5.97;60.42;101723.97;115843;1209;63394;-77
2021/04/12 08:59:25;;;;;;;5.05;1.75;;;;;;;6.30;58.36;101717.81;115862;1209;63257;-76
2021/04/12 09:01:54;;;;;;;4.80;1.33;;;;;;;6.50;56.11;101744.38;115836;1209;62503;-75
2021/04/12 09:04:52;;;;;;;;;;;;;;;;;;;;;
2021/04/12 09:08:00;;;;;;;2.93;1.73;;;;;;;6.52;55.57;101740.69;115771;1209;62400;-74
2021/04/12 09:10:51;;;;;;;5.70;2.60;;;;;;;6.51;56.95;101725.81;115838;1209;62367;-74
2021/04/12 09:13:53;;;;;;;6.47;1.13;;;;;;;6.45;56.34;101736.02;115877;1209;62315;-77
2021/04/12 09:16:43;;;;;;;6.40;1.75;;;;;;;6.32;55.79;101736.98;115885;1209;62888;-77
2021/04/12 09:19:57;;;;;;;9.97;3.73;;;;;;;6.27;57.07;101733.88;115952;1209;62320;-77
2021/04/12 09:22:39;;;;;;;6.85;3.15;;;;;;;6.59;57.73;101733.12;115949;1209;62142;-76
2021/04/12 09:25:28;;;;;;;3.25;1.60;;;;;;;6.98;54.84;101737.91;115934;1209;62466;-77
2021/04/12 09:27:57;;;;;;;4.83;1.50;;;;;;;7.10;54.39;101729.00;115906;1209;62933;-75
2021/04/12 09:30:42;;;;;;;5.80;1.50;;;;;;;6.93;54.86;101736.48;115912;1209;62291;-76
2021/04/12 09:33:54;;;;;;;4.37;1.70;;;;;;;6.75;56.37;101727.42;115871;1209;62498;-76
2021/04/12 09:36:55;;;;;;;1.27;0.60;;;;;;;6.80;53.32;101746.38;115912;1209;62317;-76
2021/04/12 09:40:09;;;;;;;6.50;1.40;;;;;;;7.09;53.53;101730.77;115904;1209;62308;-76
2021/04/12 09:43:03;;;;;;;5.97;1.57;;;;;;;7.25;53.21;101742.72;115853;1209;62857;-76
2021/04/12 09:45:41;;;;;;;5.80;3.03;;;;;;;7.09;53.05;101741.33;115868;1209;62002;-76
2021/04/12 09:48:29;;;;;;;3.67;1.07;;;;;;;6.80;54.70;101756.92;115904;1209;62303;-76
2021/04/12 09:51:04;;;;;;;7.63;2.40;;;;;;;6.62;56.02;101761.86;115916;1209;62190;-77
2021/04/12 09:54:07;;;;;;;10.17;2.07;;;;;;;6.44;56.37;101765.95;115929;1209;62443;-75
2021/04/12 09:57:11;;;;;;;2.10;1.20;;;;;;;6.25;57.41;101761.32;115867;1209;62999;-75
2021/04/12 10:00:09;;;;;;;4.10;1.03;;;;;;;6.11;57.41;101770.28;115882;1209;62494;-75
2021/04/12 10:03:17;;;;;;;2.77;1.47;;;;;;;5.93;57.49;101768.09;115911;1209;62201;-75
2021/04/12 10:06:09;;;;;;;6.87;2.10;;;;;;;6.11;56.71;101770.28;115876;1209;63153;-75
2021/04/12 10:08:57;;;;;;;5.30;1.90;;;;;;;6.38;55.97;101764.66;115729;1208;62221;-75
2021/04/12 10:11:39;;;;;;;1.95;0.95;;;;;;;6.74;53.85;101766.16;115836;1209;62983;-77
2021/04/12 10:14:35;;;;;;;7.45;1.45;;;;;;;7.12;54.75;101766.65;115782;1209;62312;-78
2021/04/12 10:17:14;;;;;;;1.45;1.00;;;;;;;7.30;51.46;101775.67;115898;1209;62130;-78
2021/04/12 10:19:52;;;;;;;3.40;1.70;;;;;;;7.21;52.76;101775.61;115859;1209;63334;-79
2021/04/12 10:22:45;;;;;;;7.25;1.35;;;;;;;7.09;50.96;101777.44;115837;1209;62382;-78
2021/04/12 10:25:17;;;;;;;4.40;1.13;;;;;;;6.85;50.52;101788.19;115730;1209;63204;-77
2021/04/12 10:27:51;;;;;;;1.37;0.50;;;;;;;6.78;51.89;101782.58;115886;1209;62433;-78
2021/04/12 10:30:43;;;;;;;5.80;1.20;;;;;;;6.67;53.32;101766.75;115882;1209;62175;-77
2021/04/12 10:33:25;;;;;;;1.17;0.53;;;;;;;6.80;53.78;101777.16;115772;1209;62107;-77
2021/04/12 10:35:59;;;;;;;2.40;1.40;;;;;;;6.98;50.60;101772.20;115872;1209;62229;-77
2021/04/12 10:38:39;;;;;;;4.30;1.00;;;;;;;7.08;50.99;101765.22;115875;1209;62192;-77
2021/04/12 10:41:41;;;;;;;4.00;0.45;;;;;;;7.28;50.26;101767.03;115860;1209;62541;-77
2021/04/12 10:44:31;;;;;;;0.90;0.50;;;;;;;7.48;49.79;101775.09;115601;1212;62319;-77
2021/04/12 10:47:14;;;;;;;12.50;1.20;;;;;;;7.48;47.63;101772.45;115868;1209;62542;-78
2021/04/12 10:50:03;;;;;;;4.10;0.70;;;;;;;7.55;48.76;101763.08;115856;1209;62469;-78
2021/04/12 10:52:54;;;;;;;1.67;0.70;;;;;;;7.81;46.18;101758.22;115869;1209;62171;-77
2021/04/12 10:55:32;;;;;;;1.87;0.80;;;;;;;8.07;45.66;101755.97;115865;1209;62226;-77
2021/04/12 10:58:37;;;;;;;2.00;0.47;;;;;;;8.06;47.11;101762.25;115853;1207;62133;-78
2021/04/12 11:01:13;;;;;;;3.27;0.80;;;;;;;7.92;48.05;101766.06;115885;1209;62222;-77
2021/04/12 11:04:09;;;;;;;2.90;0.60;;;;;;;7.69;47.12;101775.10;115890;1209;62239;-77
2021/04/12 11:06:58;;;;;;;1.60;0.70;;;;;;;7.38;48.76;101768.94;115820;1209;62100;-77
2021/04/12 11:09:40;;;;;;;3.30;0.70;;;;;;;7.14;49.62;101775.28;115854;1209;62459;-77
2021/04/12 11:12:17;;;;;;;2.13;0.60;;;;;;;7.07;50.02;101782.00;115898;1209;62203;-77
2021/04/12 11:14:52;;;;;;;2.20;0.70;;;;;;;7.05;48.81;101765.45;115873;1209;62277;-77
2021/04/12 11:17:44;;;;;;;2.00;0.80;;;;;;;7.08;49.13;101763.41;115878;1209;62396;-77
2021/04/12 11:20:17;;;;;;;1.27;0.60;;;;;;;7.31;48.02;101761.52;115843;1209;64271;-76
2021/04/12 11:23:04;;;;;;;2.55;0.75;;;;;;;7.61;46.44;101757.28;115830;1209;62637;-77
2021/04/12 11:25:37;;;;;;;2.27;0.83;;;;;;;7.85;45.57;101756.99;115890;1209;62169;-77
2021/04/12 11:28:22;;;;;;;2.60;0.70;;;;;;;8.22;43.66;101759.09;115870;1209;62189;-77
2021/04/12 11:31:12;;;;;;;1.30;0.68;;;;;;;8.60;43.05;101743.52;115893;1209;62356;-77
2021/04/12 11:33:51;;;;;;;5.13;1.03;;;;;;;8.96;44.71;101757.92;115819;1209;62738;-77
2021/04/12 11:36:53;;;;;;;1.53;0.40;;;;;;;9.30;40.73;101763.63;115804;1209;62509;-77
2021/04/12 11:39:27;;;;;;;2.27;0.70;;;;;;;9.41;41.72;101759.16;115854;1209;62253;-77
2021/04/12 11:42:03;;;;;;;3.45;1.95;;;;;;;9.44;40.03;101764.20;115859;1209;62828;-77
2021/04/12 11:44:50;;;;;;;1.20;0.20;;;;;;;9.41;41.45;101759.99;115844;1209;62113;-77
2021/04/12 11:47:44;;;;;;;0.60;0.30;;;;;;;9.52;40.94;101754.56;115879;1209;62403;-77
2021/04/12 11:50:30;;;;;;;0.60;0.40;;;;;;;9.41;38.97;101751.22;115913;1209;62025;-77
2021/04/12 11:53:09;;;;;;;4.20;0.90;;;;;;;9.28;40.63;101764.75;115871;1209;64463;-77
2021/04/12 11:56:00;;;;;;;0.80;0.43;;;;;;;9.28;41.95;101760.28;115837;1209;62671;-77
2021/04/12 11:58:44;;;;;;;1.40;0.60;;;;;;;9.22;41.59;101768.78;115910;1209;62165;-77
2021/04/12 12:01:48;;;;;;;2.07;0.73;;;;;;;9.52;41.00;101759.00;115846;1209;62214;-78
2021/04/12 12:04:37;;;;;;;1.27;0.60;;;;;;;9.86;39.69;101763.81;115888;1207;62380;-79
2021/04/12 12:07:56;;;;;;;1.90;0.57;;;;;;;10.27;38.66;101767.03;115884;1209;62130;-77
2021/04/12 12:10:51;;;;;;;1.40;0.47;;;;;;;10.79;37.46;101762.00;115786;1209;62388;-77
2021/04/12 12:13:53;;;;;;;3.28;1.08;;;;;;;11.19;36.13;101760.73;115921;1209;62377;-78
2021/04/12 12:16:34;;;;;;;1.93;0.70;;;;;;;11.42;35.79;101761.92;115812;1209;62887;-78
2021/04/12 12:19:23;;;;;;;2.73;0.60;;;;;;;11.87;36.17;101770.70;115902;1209;62796;-79
2021/04/12 12:21:58;;;;;;;2.97;0.90;;;;;;;12.23;34.49;101768.75;115868;1209;62528;-78
2021/04/12 12:24:27;;;;;;;3.70;0.70;;;;;;;12.69;33.69;101767.58;115817;1209;61765;-78
2021/04/12 12:27:01;;;;;;;3.35;0.90;;;;;;;12.88;33.33;101759.33;115903;1209;62407;-77
2021/04/12 12:29:31;;;;;;;;;;;;;;;12.26;34.28;101770.26;116077;1216;62072;-77
2021/04/12 12:32:13;;;;;;;2.40;0.80;;;;;;;11.91;36.39;101772.09;116042;1209;62340;-77
2021/04/12 12:34:56;;;;;;;1.60;0.60;;;;;;;11.41;38.39;101778.86;116017;1209;62164;-79
2021/04/12 12:37:42;;;;;;;1.07;0.43;;;;;;;11.09;37.39;101762.63;115899;1209;62027;-77
2021/04/12 12:40:17;;;;;;;1.97;0.50;;;;;;;10.69;37.46;101774.50;115881;1209;62151;-77
2021/04/12 12:42:47;;;;;;;;;;;;;;;10.37;38.11;101773.13;115935;1217;62959;-77
2021/04/12 12:45:35;;;;;;;2.15;0.50;;;;;;;10.02;36.65;101776.47;115823;1209;62152;-77
2021/04/12 12:48:11;;;;;;;0.97;0.40;;;;;;;9.95;35.98;101773.57;115881;1209;62291;-79
2021/04/12 12:50:50;;;;;;;1.33;0.63;;;;;;;10.63;36.03;101772.47;115856;1209;62500;-78
2021/04/12 12:53:28;;;;;;;1.80;0.60;;;;;;;10.98;35.69;101776.97;115860;1209;62408;-79
2021/04/12 12:56:00;;;;;;;3.43;0.60;;;;;;;10.49;37.21;101798.49;115816;1209;62581;-76
2021/04/12 12:58:29;;;;;;;1.50;0.50;;;;;;;9.90;39.38;101786.40;115863;1209;63069;-77
2021/04/12 13:01:01;;;;;;;1.50;0.70;;;;;;;9.41;41.90;101781.18;115822;1209;62509;-77
2021/04/12 13:03:32;;;;;;;1.73;0.80;;;;;;;9.13;43.89;101782.86;115894;1209;62201;-75
2021/04/12 13:06:17;;;;;;;2.97;0.70;;;;;;;8.80;45.11;101795.52;115908;1209;62228;-77